sensor_id;sensor_type;location;lat;lon;timestamp;temperature;humidity
10437;DHT22;5265;50.006;9.202;2023-02-28T22:07:12;-1.80;99.90
10437;DHT22;5265;50.006;9.202;2023-02-28T22:09:39;-1.80;99.90
10437;DHT22;5265;50.006;9.202;2023-02-28T22:12:06;-1.50;99.90
10437;DHT22;5265;50.006;9.202;2023-02-28T22:14:33;-1.80;99.90
10437;DHT22;5265;50.006;9.202;2023-02-28T22:17:00;-1.50;99.90
10437;DHT22;5265;50.006;9.202;2023-02-28T22:19:27;-1.90;99.90
10437;DHT22;5265;50.006;9.202;2023-02-28T22:21:54;-1.90;99.90
10437;DHT22;5265;50.006;9.202;2023-02-28T22:24:22;-1.80;99.90
10437;DHT22;5265;50.006;9.202;2023-02-28T22:26:49;-2.00;99.90
10437;DHT22;5265;50.006;9.202;2023-02-28T22:29:16;-2.00;99.90
10437;DHT22;5265;50.006;9.202;2023-02-28T22:31:43;-1.60;99.90
10437;DHT22;5265;50.006;9.202;2023-02-28T22:34:10;-1.80;99.90
10437;DHT22;5265;50.006;9.202;2023-02-28T22:36:38;-1.90;99.90
10437;DHT22;5265;50.006;9.202;2023-02-28T22:39:06;-1.50;99.90
10437;DHT22;5265;50.006;9.202;2023-02-28T22:41:34;-1.80;99.90
10437;DHT22;5265;50.006;9.202;2023-02-28T22:44:02;-2.00;99.90
10437;DHT22;5265;50.006;9.202;2023-02-28T22:46:30;-1.90;99.90
10437;DHT22;5265;50.006;9.202;2023-02-28T22:48:57;-1.70;99.90
10437;DHT22;5265;50.006;9.202;2023-02-28T22:51:25;-1.90;99.90
10437;DHT22;5265;50.006;9.202;2023-02-28T22:53:53;-1.90;99.90
10437;DHT22;5265;50.006;9.202;2023-02-28T22:56:21;-2.10;99.90
10437;DHT22;5265;50.006;9.202;2023-02-28T22:58:50;-2.00;99.90
10437;DHT22;5265;50.006;9.202;2023-02-28T23:01:18;-1.80;99.90
10437;DHT22;5265;50.006;9.202;2023-02-28T23:03:45;-2.10;99.90
10437;DHT22;5265;50.006;9.202;2023-02-28T23:06:13;-2.20;99.90
10437;DHT22;5265;50.006;9.202;2023-02-28T23:08:41;-2.30;99.90
10437;DHT22;5265;50.006;9.202;2023-02-28T23:11:08;-2.20;99.90
10437;DHT22;5265;50.006;9.202;2023-02-28T23:13:35;-1.80;99.90
10437;DHT22;5265;50.006;9.202;2023-02-28T23:16:05;-2.30;99.90
10437;DHT22;5265;50.006;9.202;2023-02-28T23:18:32;-2.20;99.90
10437;DHT22;5265;50.006;9.202;2023-02-28T23:20:59;-2.30;99.90
10437;DHT22;5265;50.006;9.202;2023-02-28T23:23:26;-2.30;99.90
10437;DHT22;5265;50.006;9.202;2023-02-28T23:25:53;-2.30;99.90
10437;DHT22;5265;50.006;9.202;2023-02-28T23:28:21;-2.30;99.90
10437;DHT22;5265;50.006;9.202;2023-02-28T23:30:48;-2.30;99.90
10437;DHT22;5265;50.006;9.202;2023-02-28T23:33:17;-2.10;99.90
10437;DHT22;5265;50.006;9.202;2023-02-28T23:35:45;-2.20;99.90
10437;DHT22;5265;50.006;9.202;2023-02-28T23:38:12;-2.20;99.90
10437;DHT22;5265;50.006;9.202;2023-02-28T23:40:39;-2.40;99.90
10437;DHT22;5265;50.006;9.202;2023-02-28T23:43:06;-2.20;99.90
10437;DHT22;5265;50.006;9.202;2023-02-28T23:45:34;-2.00;99.90
10437;DHT22;5265;50.006;9.202;2023-02-28T23:48:01;-2.30;99.90
10437;DHT22;5265;50.006;9.202;2023-02-28T23:50:29;-2.50;99.90
10437;DHT22;5265;50.006;9.202;2023-02-28T23:52:56;-2.50;99.90
10437;DHT22;5265;50.006;9.202;2023-02-28T23:55:23;-2.30;99.90
10437;DHT22;5265;50.006;9.202;2023-02-28T23:57:50;-2.50;99.90
